Time;durP1;ratioP1;P1;durP2;ratioP2;P2;SDS_P1;SDS_P2;PMS_P1;PMS_P2;Temp;Humidity;BMP_temperature;BMP_pressure;BME280_temperature;BME280_humidity;BME280_pressure;Samples;Min_cycle;Max_cycle;Signal;HPM_P1;HPM_P2
2021/01/30 00:00:46;;;;;;;0.30;0.30;;;;;;;7.73;66.14;97605.06;4941749;29;20571;-82
2021/01/30 00:04:00;;;;;;;0.23;0.23;;;;;;;7.66;65.09;97586.59;4942415;23;20254;-81
2021/01/30 00:06:29;;;;;;;0.30;0.30;;;;;;;7.84;65.42;97596.91;4983803;23;20233;-81
2021/01/30 00:09:05;;;;;;;0.40;0.40;;;;;;;7.88;65.71;97591.91;4964489;23;20230;-81
2021/01/30 00:12:12;;;;;;;0.30;0.30;;;;;;;7.98;64.80;97603.44;4926613;29;20237;-81
2021/01/30 00:15:00;;;;;;;0.30;0.30;;;;;;;8.13;65.24;97629.47;5075633;23;20236;-81
2021/01/30 00:17:29;;;;;;;0.40;0.40;;;;;;;8.11;65.22;97602.25;4929488;23;20244;-82
2021/01/30 00:20:55;;;;;;;0.40;0.40;;;;;;;8.00;65.65;97621.06;4950232;29;20223;-81
2021/01/30 00:23:43;;;;;;;0.40;0.40;;;;;;;7.98;65.83;97607.97;4955456;23;20235;-82
2021/01/30 00:26:15;;;;;;;0.40;0.40;;;;;;;7.86;66.02;97605.47;4931079;23;20259;-82
2021/01/30 00:28:47;;;;;;;0.30;0.30;;;;;;;7.72;66.40;97596.25;4909969;23;20232;-81
2021/01/30 00:31:35;;;;;;;0.40;0.40;;;;;;;7.93;66.25;97622.06;4908397;29;20252;-81
2021/01/30 00:34:04;;;;;;;0.30;0.30;;;;;;;7.83;66.25;97597.97;4939210;29;20200;-82
2021/01/30 00:36:33;;;;;;;0.30;0.30;;;;;;;8.17;65.89;97643.09;4904868;29;20270;-82
2021/01/30 00:39:24;;;;;;;0.30;0.30;;;;;;;7.87;65.44;97592.94;4924590;29;20248;-82
2021/01/30 00:41:55;;;;;;;0.30;0.30;;;;;;;8.16;65.52;97623.66;4906585;29;20237;-82
2021/01/30 00:44:24;;;;;;;0.30;0.30;;;;;;;8.19;65.04;97609.78;4935596;29;20611;-82
2021/01/30 00:47:24;;;;;;;0.30;0.30;;;;;;;8.37;64.49;97638.00;4904241;23;20242;-82
2021/01/30 00:49:55;;;;;;;0.33;0.33;;;;;;;8.30;65.07;97627.53;4860126;29;20203;-82
2021/01/30 00:52:32;;;;;;;0.30;0.30;;;;;;;8.43;64.46;97647.66;4858607;29;20218;-82
2021/01/30 00:55:23;;;;;;;0.40;0.40;;;;;;;8.43;64.94;97628.97;4950516;23;20195;-82
2021/01/30 00:58:22;;;;;;;0.30;0.30;;;;;;;8.56;63.93;97644.56;4922957;23;20240;-82
2021/01/30 01:01:18;;;;;;;0.30;0.30;;;;;;;8.61;63.61;97647.28;4915596;23;20236;-81
2021/01/30 01:03:45;;;;;;;0.30;0.30;;;;;;;8.52;63.63;97634.66;4939965;23;20232;-82
2021/01/30 01:06:50;;;;;;;0.40;0.40;;;;;;;8.56;63.39;97635.75;4939293;29;20295;-81
2021/01/30 01:09:20;;;;;;;0.40;0.40;;;;;;;8.56;63.72;97635.75;4939576;29;20231;-81
2021/01/30 01:11:51;;;;;;;0.33;0.33;;;;;;;8.58;63.77;97630.97;4938291;29;20255;-82
2021/01/30 01:14:30;;;;;;;0.30;0.30;;;;;;;8.49;63.57;97619.16;4933320;23;20232;-82
2021/01/30 01:16:56;;;;;;;0.37;0.37;;;;;;;8.53;63.47;97639.75;4886089;23;20263;-82
2021/01/30 01:19:31;;;;;;;0.30;0.30;;;;;;;8.52;63.10;97642.66;4936040;23;20240;-83
2021/01/30 01:22:04;;;;;;;0.30;0.30;;;;;;;8.43;63.53;97636.19;4899352;29;20240;-83
2021/01/30 01:24:41;;;;;;;0.40;0.40;;;;;;;8.37;63.21;97630.78;4908078;29;20307;-84
2021/01/30 01:27:09;;;;;;;0.30;0.30;;;;;;;8.42;63.76;97622.03;4908381;29;20267;-83
2021/01/30 01:29:38;;;;;;;0.40;0.40;;;;;;;8.28;63.39;97610.94;4894680;29;20312;-82
2021/01/30 01:32:06;;;;;;;0.40;0.40;;;;;;;8.44;63.50;97643.13;4907695;29;20263;-83
2021/01/30 01:34:35;;;;;;;0.30;0.30;;;;;;;8.49;64.03;97641.28;4877679;29;20232;-83
2021/01/30 01:37:05;;;;;;;0.30;0.30;;;;;;;8.43;63.55;97639.66;4908517;29;20232;-83
2021/01/30 01:39:34;;;;;;;0.40;0.40;;;;;;;8.44;63.34;97649.28;4892220;29;20240;-83
2021/01/30 01:42:19;;;;;;;0.30;0.30;;;;;;;8.39;64.24;97635.88;4892176;29;20221;-82
2021/01/30 01:44:46;;;;;;;0.23;0.23;;;;;;;8.34;63.45;97623.31;4888829;29;20674;-82
2021/01/30 01:47:30;;;;;;;0.40;0.40;;;;;;;8.36;63.03;97623.84;4889520;29;20323;-81
2021/01/30 01:50:03;;;;;;;0.30;0.30;;;;;;;8.34;63.66;97625.97;4874636;29;20232;-82
2021/01/30 01:52:33;;;;;;;0.40;0.40;;;;;;;8.32;63.62;97630.75;4888903;29;20244;-83
2021/01/30 01:55:17;;;;;;;0.30;0.30;;;;;;;8.33;63.92;97642.22;4888905;29;20236;-82
2021/01/30 01:57:48;;;;;;;0.33;0.33;;;;;;;8.39;63.30;97649.22;4870790;29;20233;-82
2021/01/30 02:00:19;;;;;;;0.30;0.30;;;;;;;8.44;62.93;97645.81;4870627;29;20257;-82
2021/01/30 02:02:47;;;;;;;0.30;0.30;;;;;;;8.35;63.13;97634.78;4886139;29;20230;-82
2021/01/30 02:05:23;;;;;;;0.30;0.30;;;;;;;8.40;63.00;97638.28;4858799;29;20319;-82
2021/01/30 02:07:50;;;;;;;0.40;0.40;;;;;;;8.36;63.88;97644.38;4859698;29;20622;-83
2021/01/30 02:10:20;;;;;;;0.30;0.30;;;;;;;8.30;63.54;97632.88;4884066;29;20246;-82
2021/01/30 02:12:48;;;;;;;0.30;0.30;;;;;;;8.28;63.41;97629.63;4887412;29;20278;-82
2021/01/30 02:15:18;;;;;;;0.30;0.30;;;;;;;8.32;63.81;97625.41;4873484;29;20236;-82
2021/01/30 02:18:06;;;;;;;0.30;0.30;;;;;;;8.35;63.59;97626.78;4873875;29;20237;-82
2021/01/30 02:21:10;;;;;;;0.40;0.40;;;;;;;8.29;64.04;97625.09;4888247;29;20291;-82
2021/01/30 02:24:52;;;;;;;0.30;0.30;;;;;;;8.30;63.64;97602.72;4920843;29;20327;-82
2021/01/30 02:27:38;;;;;;;0.40;0.40;;;;;;;8.33;63.43;97612.88;4850865;29;20654;-82
2021/01/30 02:30:45;;;;;;;0.30;0.30;;;;;;;8.28;63.84;97608.28;4866657;29;20280;-83
2021/01/30 02:33:45;;;;;;;0.30;0.30;;;;;;;8.27;63.65;97614.66;4883536;29;20253;-83
2021/01/30 02:36:36;;;;;;;0.30;0.30;;;;;;;8.26;63.79;97605.03;4870552;29;20229;-83
2021/01/30 02:39:28;;;;;;;0.30;0.30;;;;;;;8.31;62.88;97596.31;4865931;29;20257;-81
2021/01/30 02:42:26;;;;;;;0.30;0.30;;;;;;;8.38;63.28;97600.38;4866807;29;20233;-81
2021/01/30 02:45:04;;;;;;;0.37;0.37;;;;;;;8.28;63.06;97584.25;4880328;29;20238;-82
2021/01/30 02:47:38;;;;;;;0.30;0.30;;;;;;;8.42;62.83;97603.34;4865877;29;20321;-81
2021/01/30 02:50:17;;;;;;;0.30;0.30;;;;;;;8.35;62.67;97598.22;4842142;29;20241;-81
2021/01/30 02:52:48;;;;;;;0.30;0.30;;;;;;;8.37;62.74;97593.44;4906236;29;20224;-82
2021/01/30 02:55:18;;;;;;;0.30;0.30;;;;;;;8.33;62.81;97595.00;4877479;29;20262;-81
2021/01/30 02:57:50;;;;;;;0.40;0.40;;;;;;;8.40;63.18;97616.13;4896417;29;20300;-83
2021/01/30 03:00:21;;;;;;;0.30;0.30;;;;;;;8.54;62.52;97603.19;4878627;29;20239;-81
2021/01/30 03:02:48;;;;;;;0.30;0.30;;;;;;;8.52;62.84;97598.09;4911117;29;20630;-82
2021/01/30 03:05:16;;;;;;;0.30;0.30;;;;;;;8.55;62.82;97607.44;4895969;29;20240;-82
2021/01/30 03:08:22;;;;;;;0.30;0.30;;;;;;;8.48;63.43;97605.00;4898826;29;20236;-82
2021/01/30 03:11:10;;;;;;;0.30;0.30;;;;;;;8.51;63.58;97617.03;4910538;29;20279;-82
2021/01/30 03:13:47;;;;;;;0.30;0.30;;;;;;;8.50;62.93;97608.22;4888755;29;20383;-82
2021/01/30 03:16:20;;;;;;;0.40;0.40;;;;;;;8.42;63.26;97602.53;4875275;29;20240;-82
2021/01/30 03:18:51;;;;;;;0.40;0.40;;;;;;;8.36;63.40;97604.34;4898405;29;20239;-81
2021/01/30 03:21:18;;;;;;;0.40;0.40;;;;;;;8.42;63.11;97613.22;4928511;29;20240;-82
2021/01/30 03:23:44;;;;;;;0.30;0.30;;;;;;;8.33;63.17;97600.34;4921464;29;20232;-82
2021/01/30 03:26:19;;;;;;;0.30;0.30;;;;;;;8.38;62.96;97588.91;4923677;29;20271;-82
2021/01/30 03:28:49;;;;;;;0.30;0.30;;;;;;;8.35;63.43;97605.44;4940720;29;20235;-83
2021/01/30 03:31:15;;;;;;;0.30;0.30;;;;;;;8.27;63.68;97585.31;4905713;29;20258;-82
2021/01/30 03:33:43;;;;;;;0.30;0.30;;;;;;;8.25;63.81;97584.78;4927717;29;20315;-82
2021/01/30 03:36:12;;;;;;;0.30;0.30;;;;;;;8.14;63.83;97575.06;4927650;29;20237;-82
2021/01/30 03:38:42;;;;;;;0.30;0.30;;;;;;;8.16;63.04;97582.81;4943161;29;20274;-82
2021/01/30 03:41:08;;;;;;;0.30;0.30;;;;;;;8.20;63.47;97586.59;4927357;29;20235;-82
2021/01/30 03:43:35;;;;;;;0.30;0.30;;;;;;;8.17;63.73;97597.75;4917097;29;20236;-82
2021/01/30 03:46:05;;;;;;;0.37;0.37;;;;;;;8.16;63.14;97598.84;4923740;29;20675;-82
2021/01/30 03:48:31;;;;;;;0.20;0.20;;;;;;;8.34;62.52;97599.28;4908035;29;20244;-82
2021/01/30 03:50:58;;;;;;;0.37;0.37;;;;;;;8.48;61.88;97609.53;4923518;29;20245;-83
2021/01/30 03:53:25;;;;;;;0.30;0.30;;;;;;;8.44;62.26;97595.09;4918785;29;20327;-83
2021/01/30 03:55:54;;;;;;;0.40;0.40;;;;;;;8.41;62.46;97588.38;4911402;29;20255;-82
2021/01/30 03:58:25;;;;;;;0.30;0.30;;;;;;;8.47;62.43;97598.06;4943038;29;20278;-82
2021/01/30 04:00:52;;;;;;;0.30;0.30;;;;;;;8.51;62.04;97598.34;4925841;29;20291;-82
2021/01/30 04:03:19;;;;;;;0.30;0.30;;;;;;;8.60;61.54;97615.50;4926706;29;20231;-82
2021/01/30 04:05:46;;;;;;;0.30;0.30;;;;;;;8.51;62.15;97601.00;4925850;29;20238;-82
2021/01/30 04:08:13;;;;;;;0.30;0.30;;;;;;;8.56;61.82;97596.53;4923012;29;20229;-82
2021/01/30 04:10:53;;;;;;;0.30;0.30;;;;;;;8.46;61.96;97591.09;4922228;29;20243;-82
2021/01/30 04:13:21;;;;;;;0.30;0.30;;;;;;;8.52;62.38;97607.97;4891407;29;20236;-83
2021/01/30 04:15:50;;;;;;;0.30;0.30;;;;;;;8.46;62.18;97612.44;4908197;29;20270;-82
2021/01/30 04:18:18;;;;;;;0.30;0.30;;;;;;;8.43;62.23;97607.63;4926184;28;20228;-82
2021/01/30 04:20:44;;;;;;;0.30;0.30;;;;;;;8.59;62.29;97622.69;4925952;29;20243;-82
2021/01/30 04:23:11;;;;;;;0.30;0.30;;;;;;;8.53;61.95;97598.91;4910153;29;20311;-83
2021/01/30 04:25:38;;;;;;;0.30;0.30;;;;;;;8.49;62.32;97605.81;4894824;29;20286;-81
2021/01/30 04:28:05;;;;;;;0.30;0.30;;;;;;;8.40;61.95;97595.59;4894362;28;20255;-82
2021/01/30 04:30:33;;;;;;;0.30;0.30;;;;;;;8.52;62.06;97616.78;4910911;29;20246;-82
2021/01/30 04:33:01;;;;;;;0.30;0.30;;;;;;;8.34;62.66;97590.47;4911028;29;20239;-81
2021/01/30 04:35:32;;;;;;;0.30;0.30;;;;;;;8.51;62.32;97609.81;4926294;29;20235;-82
2021/01/30 04:37:59;;;;;;;0.30;0.30;;;;;;;8.46;62.13;97611.66;4909732;29;20236;-82
2021/01/30 04:40:37;;;;;;;0.30;0.30;;;;;;;8.50;62.42;97610.06;4893927;29;20239;-82
2021/01/30 04:43:09;;;;;;;0.30;0.30;;;;;;;8.45;62.33;97596.69;4894728;29;20232;-83
2021/01/30 04:46:13;;;;;;;0.30;0.30;;;;;;;8.54;62.15;97600.53;4925532;29;20251;-83
2021/01/30 04:49:02;;;;;;;0.30;0.30;;;;;;;8.28;62.30;97591.47;4923485;29;20677;-83
2021/01/30 04:51:35;;;;;;;0.30;0.30;;;;;;;8.46;62.70;97616.97;4894307;29;20252;-82
2021/01/30 04:54:19;;;;;;;0.30;0.30;;;;;;;8.42;62.42;97613.22;4908899;28;20219;-82
2021/01/30 04:57:11;;;;;;;0.30;0.30;;;;;;;8.35;62.49;97613.44;4911319;29;20232;-81
2021/01/30 05:00:17;;;;;;;0.30;0.30;;;;;;;8.28;62.73;97594.13;4929127;29;20322;-82
2021/01/30 05:03:29;;;;;;;0.30;0.30;;;;;;;8.37;62.42;97603.31;4925594;29;20236;-82
2021/01/30 05:06:16;;;;;;;0.30;0.30;;;;;;;8.14;62.66;97569.72;4943759;28;20256;-83
2021/01/30 05:08:50;;;;;;;0.30;0.30;;;;;;;8.22;62.78;97587.13;4923735;29;20262;-82
2021/01/30 05:11:20;;;;;;;0.30;0.30;;;;;;;8.24;63.10;97583.16;4897200;29;20235;-82
2021/01/30 05:14:02;;;;;;;0.23;0.23;;;;;;;8.04;63.08;97569.63;4904044;29;20705;-82
2021/01/30 05:16:59;;;;;;;0.30;0.30;;;;;;;8.10;62.59;97581.16;4925111;29;20245;-83
2021/01/30 05:19:32;;;;;;;0.30;0.30;;;;;;;8.31;62.22;97601.63;4927055;29;20229;-81
2021/01/30 05:22:01;;;;;;;0.30;0.30;;;;;;;8.18;62.50;97600.19;4924683;29;20242;-82
2021/01/30 05:24:35;;;;;;;0.30;0.30;;;;;;;8.32;62.68;97592.59;4924910;29;20239;-82
2021/01/30 05:27:35;;;;;;;0.30;0.30;;;;;;;8.22;62.53;97592.47;4927392;29;20236;-81
2021/01/30 05:30:15;;;;;;;0.30;0.30;;;;;;;8.21;62.46;97590.88;4937275;28;20231;-83
2021/01/30 05:33:27;;;;;;;0.30;0.30;;;;;;;8.29;62.58;97595.75;4942770;29;20656;-82
2021/01/30 05:36:17;;;;;;;0.30;0.30;;;;;;;8.30;62.87;97598.19;4940222;29;20235;-82
2021/01/30 05:38:56;;;;;;;0.30;0.30;;;;;;;8.08;62.75;97569.94;4936664;29;20243;-81
2021/01/30 05:41:51;;;;;;;0.30;0.30;;;;;;;8.12;63.19;97579.84;4920875;29;20251;-82
2021/01/30 05:44:34;;;;;;;0.30;0.30;;;;;;;8.15;63.01;97587.34;4938207;29;20692;-82
2021/01/30 05:47:02;;;;;;;0.30;0.30;;;;;;;8.17;62.49;97547.06;4924491;29;20687;-82
2021/01/30 05:49:33;;;;;;;0.30;0.30;;;;;;;8.26;61.84;97572.22;4908789;29;20242;-82
2021/01/30 05:52:15;;;;;;;0.30;0.30;;;;;;;8.43;61.24;97572.94;4924366;29;20255;-81
2021/01/30 05:54:42;;;;;;;0.30;0.30;;;;;;;8.35;60.75;97568.09;4923866;29;20247;-81
2021/01/30 05:57:09;;;;;;;0.30;0.30;;;;;;;8.46;60.17;97559.06;4940151;29;20291;-82
2021/01/30 05:59:36;;;;;;;0.33;0.33;;;;;;;8.52;60.17;97574.06;4924204;29;20235;-82
2021/01/30 06:02:12;;;;;;;0.30;0.30;;;;;;;8.59;58.91;97555.97;4924744;28;20692;-82
2021/01/30 06:04:41;;;;;;;0.30;0.30;;;;;;;8.59;59.11;97553.28;4923950;29;20258;-82
2021/01/30 06:07:22;;;;;;;0.30;0.30;;;;;;;8.54;59.58;97571.94;4902009;29;20259;-82
2021/01/30 06:09:52;;;;;;;0.30;0.30;;;;;;;8.51;59.56;97580.47;4940372;29;20231;-82
2021/01/30 06:12:29;;;;;;;0.30;0.30;;;;;;;8.60;59.02;97572.78;4923036;29;20228;-82
2021/01/30 06:15:15;;;;;;;0.30;0.30;;;;;;;8.65;58.95;97573.63;4908660;29;20243;-82
2021/01/30 06:17:45;;;;;;;0.30;0.30;;;;;;;8.52;59.39;97568.75;4924863;29;20569;-82
2021/01/30 06:20:29;;;;;;;0.30;0.30;;;;;;;8.54;58.56;97553.25;4923786;28;20239;-82
2021/01/30 06:23:02;;;;;;;0.30;0.30;;;;;;;8.55;58.47;97567.41;4925263;29;20231;-82
2021/01/30 06:25:46;;;;;;;0.30;0.30;;;;;;;8.49;58.47;97565.78;4940203;29;20232;-82
2021/01/30 06:28:24;;;;;;;0.30;0.30;;;;;;;8.46;58.18;97553.75;4931557;28;20591;-83
2021/01/30 06:31:13;;;;;;;0.30;0.30;;;;;;;8.54;57.61;97563.94;4947641;29;20240;-83
2021/01/30 06:33:45;;;;;;;0.30;0.30;;;;;;;8.58;58.14;97582.94;4914151;29;20239;-82
2021/01/30 06:36:24;;;;;;;0.30;0.30;;;;;;;8.60;57.52;97596.81;4927723;28;20322;-82
2021/01/30 06:39:14;;;;;;;0.20;0.20;;;;;;;8.57;57.44;97581.31;4928773;29;20577;-82
2021/01/30 06:41:41;;;;;;;0.30;0.30;;;;;;;8.67;57.65;97586.72;4943115;29;20231;-82
2021/01/30 06:44:22;;;;;;;0.40;0.40;;;;;;;8.62;57.41;97582.16;4927165;28;20236;-82
2021/01/30 06:47:14;;;;;;;0.30;0.30;;;;;;;8.71;57.66;97577.16;4943220;29;20594;-82
2021/01/30 06:49:45;;;;;;;0.30;0.30;;;;;;;8.50;57.59;97573.50;4941483;29;20240;-82
2021/01/30 06:52:25;;;;;;;0.33;0.33;;;;;;;8.65;57.43;97572.81;4913373;29;20240;-82
2021/01/30 06:55:05;;;;;;;0.30;0.30;;;;;;;8.54;57.67;97568.50;4924517;29;20240;-82
2021/01/30 06:57:33;;;;;;;0.30;0.30;;;;;;;8.53;57.60;97556.19;4942353;29;20235;-82
2021/01/30 07:00:06;;;;;;;0.30;0.30;;;;;;;8.63;57.55;97580.31;4943779;29;20235;-82
2021/01/30 07:02:41;;;;;;;0.30;0.30;;;;;;;8.73;57.28;97570.47;4942570;29;20290;-82
2021/01/30 07:05:13;;;;;;;0.30;0.30;;;;;;;8.79;56.87;97550.75;4928450;29;20241;-82
2021/01/30 07:08:38;;;;;;;0.30;0.30;;;;;;;8.69;57.10;97548.03;4942977;29;20327;-82
2021/01/30 07:11:35;;;;;;;0.30;0.30;;;;;;;8.88;56.02;97552.94;4918357;29;20751;-83
2021/01/30 07:14:23;;;;;;;0.30;0.30;;;;;;;8.82;56.15;97550.22;4942365;28;20243;-81
2021/01/30 07:17:02;;;;;;;0.30;0.30;;;;;;;8.90;55.45;97542.81;4926328;29;20244;-82
2021/01/30 07:19:50;;;;;;;0.40;0.40;;;;;;;9.02;55.21;97533.53;4927368;29;20254;-82
2021/01/30 07:22:22;;;;;;;0.30;0.30;;;;;;;9.13;54.54;97537.06;4941491;28;20234;-83
2021/01/30 07:24:54;;;;;;;0.30;0.30;;;;;;;9.10;54.89;97502.81;4927060;29;20274;-82
2021/01/30 07:27:26;;;;;;;0.30;0.30;;;;;;;9.16;54.89;97544.53;4942343;29;20232;-82
2021/01/30 07:30:11;;;;;;;0.30;0.30;;;;;;;9.02;54.96;97484.63;4913403;29;20247;-82
2021/01/30 07:33:17;;;;;;;0.30;0.30;;;;;;;9.31;55.04;97536.59;4918745;29;20235;-82
2021/01/30 07:36:36;;;;;;;0.27;0.27;;;;;;;9.27;55.12;97506.13;4930443;29;20310;-81
2021/01/30 07:39:08;;;;;;;0.30;0.30;;;;;;;9.23;55.54;97513.84;4910737;29;20250;-82
2021/01/30 07:41:48;;;;;;;0.40;0.40;;;;;;;9.20;54.94;97489.50;4941333;29;20299;-83
2021/01/30 07:44:22;;;;;;;0.40;0.40;;;;;;;9.34;54.67;97498.63;4925466;28;20220;-82
2021/01/30 07:47:02;;;;;;;0.40;0.40;;;;;;;9.40;54.13;97520.84;4942275;29;20286;-83
2021/01/30 07:49:32;;;;;;;0.37;0.37;;;;;;;9.47;53.79;97489.34;4926639;29;20743;-82
2021/01/30 07:52:20;;;;;;;0.30;0.30;;;;;;;9.46;53.52;97482.38;4942977;29;20247;-82
2021/01/30 07:54:53;;;;;;;0.30;0.30;;;;;;;9.51;53.56;97471.69;4927192;29;20236;-82
2021/01/30 07:57:59;;;;;;;0.40;0.40;;;;;;;9.57;53.43;97518.75;4929264;29;20266;-82
2021/01/30 08:00:55;;;;;;;0.40;0.40;;;;;;;9.53;53.44;97470.34;4939234;29;20739;-82
2021/01/30 08:03:35;;;;;;;0.30;0.30;;;;;;;9.61;52.70;97459.13;4921846;29;20260;-83
2021/01/30 08:06:16;;;;;;;0.30;0.30;;;;;;;9.57;52.91;97466.09;4942114;28;20744;-82
2021/01/30 08:08:54;;;;;;;0.30;0.30;;;;;;;9.73;52.62;97461.56;4943276;29;20322;-81
2021/01/30 08:11:31;;;;;;;0.30;0.30;;;;;;;9.73;52.62;97453.53;4945606;29;20255;-82
2021/01/30 08:14:35;;;;;;;0.40;0.40;;;;;;;9.75;52.75;97448.75;4931072;29;20250;-84
2021/01/30 08:17:28;;;;;;;0.30;0.30;;;;;;;9.91;52.78;97466.38;4963550;28;20233;-83
2021/01/30 08:20:10;;;;;;;0.30;0.30;;;;;;;9.81;52.53;97436.16;4932330;29;20241;-84
2021/01/30 08:23:13;;;;;;;0.30;0.30;;;;;;;9.93;53.46;97407.28;4924408;29;20232;-83
2021/01/30 08:25:49;;;;;;;0.30;0.30;;;;;;;9.85;52.29;97437.22;4928409;29;20241;-84
2021/01/30 08:29:08;;;;;;;0.30;0.30;;;;;;;9.97;52.15;97449.28;4919637;29;20627;-84
2021/01/30 08:31:37;;;;;;;0.30;0.30;;;;;;;10.05;52.84;97472.81;4944975;29;20245;-83
2021/01/30 08:34:20;;;;;;;0.30;0.30;;;;;;;10.03;52.44;97458.88;4944241;28;20235;-83
2021/01/30 08:36:51;;;;;;;0.30;0.30;;;;;;;9.96;51.78;97453.00;4944056;29;20232;-84
2021/01/30 08:39:32;;;;;;;0.30;0.30;;;;;;;10.11;52.21;97449.53;4944147;29;20312;-84
2021/01/30 08:42:20;;;;;;;0.30;0.30;;;;;;;10.13;52.21;97490.19;4928242;29;20284;-83
2021/01/30 08:45:01;;;;;;;0.20;0.20;;;;;;;10.18;51.69;97462.66;4942775;29;20248;-83
2021/01/30 08:47:29;;;;;;;0.30;0.30;;;;;;;10.18;52.08;97490.22;4928095;29;20274;-83
2021/01/30 08:50:26;;;;;;;0.30;0.30;;;;;;;10.20;51.74;97466.69;4928787;29;20233;-83
2021/01/30 08:53:12;;;;;;;0.30;0.30;;;;;;;10.27;52.33;97479.75;4923275;29;20222;-83
2021/01/30 08:56:03;;;;;;;0.30;0.30;;;;;;;10.25;52.37;97482.72;4944674;29;20269;-84
2021/01/30 08:58:37;;;;;;;0.30;0.30;;;;;;;10.25;52.35;97496.13;4926034;29;20703;-84
2021/01/30 09:01:23;;;;;;;0.30;0.30;;;;;;;10.21;52.64;97494.25;4925487;29;20263;-83
2021/01/30 09:04:47;;;;;;;0.30;0.30;;;;;;;10.13;52.45;97501.69;4941964;29;20243;-84
2021/01/30 09:07:50;;;;;;;0.30;0.30;;;;;;;10.26;52.01;97519.13;4919388;29;20262;-84
2021/01/30 09:10:38;;;;;;;0.30;0.30;;;;;;;10.24;52.01;97526.63;4939862;29;20266;-84
2021/01/30 09:13:18;;;;;;;0.30;0.30;;;;;;;10.23;52.52;97524.19;4924220;29;20245;-84
2021/01/30 09:15:46;;;;;;;0.30;0.30;;;;;;;10.36;51.56;97496.91;4909744;29;20247;-84
2021/01/30 09:18:47;;;;;;;0.20;0.20;;;;;;;10.39;51.41;97531.16;4925096;29;20250;-84
2021/01/30 09:21:20;;;;;;;0.30;0.30;;;;;;;10.45;50.63;97528.19;4925636;29;20584;-84
2021/01/30 09:24:48;;;;;;;0.30;0.30;;;;;;;10.49;50.59;97552.59;4922929;29;20228;-84
2021/01/30 09:27:27;;;;;;;0.30;0.30;;;;;;;10.47;50.59;97566.22;4850231;29;20316;-83
2021/01/30 09:30:21;;;;;;;0.30;0.30;;;;;;;10.49;51.11;97571.31;4909127;29;20239;-83
2021/01/30 09:32:49;;;;;;;0.20;0.20;;;;;;;10.37;51.32;97571.56;4909725;29;20304;-84
2021/01/30 09:35:25;;;;;;;0.30;0.30;;;;;;;10.41;50.97;97548.56;4911620;29;20260;-83
2021/01/30 09:42:38;;;;;;;0.27;0.27;;;;;;;10.52;49.61;97512.69;4923338;29;20842;-83
2021/01/30 09:46:13;;;;;;;;;;;;;;;;;;;;;
2021/01/30 09:49:38;;;;;;;0.30;0.30;;;;;;;10.71;48.78;97536.22;4917151;29;20203;-83
2021/01/30 09:56:48;;;;;;;0.27;0.27;;;;;;;11.03;49.44;97566.94;4861091;29;20244;-83
2021/01/30 10:13:04;;;;;;;0.30;0.30;;;;;;;11.36;48.28;97592.31;4869385;29;20332;-83
2021/01/30 10:24:20;;;;;;;0.30;0.30;;;;;;;11.66;48.95;97596.75;5367100;23;20262;-81
2021/01/30 10:30:50;;;;;;;0.20;0.20;;;;;;;11.78;47.78;97514.09;5466588;23;20265;-82
2021/01/30 10:47:28;;;;;;;0.30;0.30;;;;;;;12.28;45.71;97561.22;4941061;29;20216;-83
2021/01/30 10:56:38;;;;;;;0.30;0.30;;;;;;;12.68;44.79;97543.19;4990842;23;20248;-82
2021/01/30 11:00:17;;;;;;;0.20;0.20;;;;;;;12.76;42.82;97524.56;4919531;29;20269;-82
2021/01/30 11:04:05;;;;;;;0.30;0.30;;;;;;;13.26;42.40;97541.22;4920918;29;20218;-82
2021/01/30 11:07:18;;;;;;;0.20;0.20;;;;;;;13.16;42.13;97511.75;5045235;23;20236;-81
2021/01/30 11:10:53;;;;;;;0.20;0.20;;;;;;;13.01;42.83;97531.56;4100533;27;20290;-82
2021/01/30 11:13:55;;;;;;;0.20;0.20;;;;;;;13.19;43.27;97551.53;5022727;23;20243;-82
2021/01/30 11:20:42;;;;;;;0.30;0.30;;;;;;;12.66;44.07;97546.13;5323928;23;20235;-81
2021/01/30 11:29:48;;;;;;;0.20;0.20;;;;;;;13.44;44.05;97575.44;3621347;23;20512;-81
2021/01/30 11:35:52;;;;;;;0.20;0.20;;;;;;;13.35;43.38;97534.13;4924659;29;20314;-81
2021/01/30 11:39:14;;;;;;;0.20;0.20;;;;;;;13.48;43.38;97527.25;5364604;23;20242;-83
2021/01/30 11:42:38;;;;;;;0.20;0.20;;;;;;;13.61;43.04;97527.34;5240475;23;20247;-82
2021/01/30 11:45:47;;;;;;;0.30;0.30;;;;;;;13.28;43.17;97520.25;4968376;29;20230;-82
2021/01/30 11:52:07;;;;;;;0.20;0.20;;;;;;;13.80;43.38;97543.50;5204040;23;20247;-83
2021/01/30 11:55:44;;;;;;;0.20;0.20;;;;;;;13.87;43.18;97549.31;4982006;28;20193;-82
2021/01/30 11:59:20;;;;;;;0.20;0.20;;;;;;;13.53;45.12;97525.28;5669457;23;20473;-83
2021/01/30 12:02:54;;;;;;;0.20;0.20;;;;;;;13.41;46.19;97562.56;5262564;23;20244;-83
2021/01/30 12:13:03;;;;;;;0.20;0.20;;;;;;;12.19;48.90;97514.59;5049359;23;20263;-80
2021/01/30 12:16:22;;;;;;;0.20;0.20;;;;;;;12.23;49.81;97582.75;5006537;23;20235;31
2021/01/30 12:18:58;;;;;;;0.20;0.20;;;;;;;11.79;50.48;97541.72;4891596;23;20246;-82
2021/01/30 12:21:43;;;;;;;0.20;0.20;;;;;;;11.78;50.81;97553.53;5057193;23;20234;-81
2021/01/30 12:24:14;;;;;;;0.20;0.20;;;;;;;11.68;50.35;97546.31;4977224;28;20245;-81
2021/01/30 12:26:51;;;;;;;0.20;0.20;;;;;;;11.87;50.74;97592.09;4949673;23;20245;-79
2021/01/30 12:29:28;;;;;;;0.30;0.30;;;;;;;11.46;50.53;97572.69;4937841;29;20241;-80
2021/01/30 12:32:18;;;;;;;0.20;0.20;;;;;;;11.38;51.48;97574.06;4948347;28;20227;-80
2021/01/30 12:35:09;;;;;;;0.20;0.20;;;;;;;11.46;51.68;97600.31;4921933;29;20229;-81
2021/01/30 12:37:57;;;;;;;0.30;0.30;;;;;;;11.35;51.83;97581.84;4942898;29;20226;-81
2021/01/30 12:40:30;;;;;;;0.30;0.30;;;;;;;11.19;50.47;97553.50;4917237;29;20713;-81
2021/01/30 12:43:04;;;;;;;0.20;0.20;;;;;;;11.33;50.85;97581.34;4917151;29;20219;-81
2021/01/30 12:45:51;;;;;;;0.20;0.20;;;;;;;11.19;50.39;97577.63;4930947;29;20267;-80
2021/01/30 12:48:28;;;;;;;0.30;0.30;;;;;;;11.04;50.81;97554.34;5148979;23;20217;-80
2021/01/30 12:51:21;;;;;;;0.20;0.20;;;;;;;11.09;50.93;97573.09;4942948;28;20247;-80
2021/01/30 12:54:09;;;;;;;0.20;0.20;;;;;;;10.92;50.87;97559.19;4939156;23;20219;-80
2021/01/30 12:57:15;;;;;;;0.30;0.30;;;;;;;11.07;51.41;97602.03;4947163;23;20212;-80
2021/01/30 12:59:54;;;;;;;0.30;0.30;;;;;;;10.85;51.69;97580.91;4922744;29;20219;-80
2021/01/30 13:02:24;;;;;;;0.30;0.30;;;;;;;10.76;51.83;97585.22;4954605;23;20402;-80
2021/01/30 13:05:20;;;;;;;0.20;0.20;;;;;;;10.79;52.35;97599.94;4934037;23;20218;-80
2021/01/30 13:08:06;;;;;;;0.30;0.30;;;;;;;10.65;52.73;97586.28;4947902;23;20221;-79
2021/01/30 13:10:37;;;;;;;0.20;0.20;;;;;;;10.51;53.06;97604.78;5035432;23;20245;-80
2021/01/30 13:13:14;;;;;;;0.30;0.30;;;;;;;10.51;54.13;97625.38;5024366;23;20227;-80
2021/01/30 13:15:46;;;;;;;0.30;0.30;;;;;;;10.24;54.68;97601.56;4926941;29;20212;-80
2021/01/30 13:18:18;;;;;;;0.30;0.30;;;;;;;10.07;54.87;97593.75;5024438;23;20213;-80
2021/01/30 13:20:48;;;;;;;0.30;0.30;;;;;;;9.99;54.68;97599.59;5024320;23;20238;-80
2021/01/30 13:23:18;;;;;;;0.30;0.30;;;;;;;10.08;54.81;97618.59;4929461;23;20643;-80
2021/01/30 13:25:50;;;;;;;0.30;0.30;;;;;;;10.13;56.22;97623.97;4904555;23;20232;-79
2021/01/30 13:28:20;;;;;;;0.30;0.30;;;;;;;10.13;56.73;97630.13;4874268;23;20235;-80
2021/01/30 13:30:48;;;;;;;0.30;0.30;;;;;;;9.98;57.13;97624.75;4942274;23;20236;-80
2021/01/30 13:33:23;;;;;;;0.30;0.30;;;;;;;9.76;57.23;97596.59;4942995;23;20268;-80
2021/01/30 13:35:51;;;;;;;0.27;0.27;;;;;;;9.63;57.61;97592.56;4978430;23;20240;-80
2021/01/30 13:38:26;;;;;;;0.30;0.30;;;;;;;9.69;58.52;97615.56;4919566;23;20262;-80
2021/01/30 13:40:53;;;;;;;0.30;0.30;;;;;;;9.53;59.80;97603.22;4945705;29;20239;-80
2021/01/30 13:43:31;;;;;;;0.30;0.30;;;;;;;9.68;59.67;97628.13;4946159;23;20219;-80
2021/01/30 13:46:03;;;;;;;0.30;0.30;;;;;;;9.58;59.62;97625.44;4918616;29;20237;-80
2021/01/30 13:48:32;;;;;;;0.30;0.30;;;;;;;9.56;59.29;97640.13;4902431;29;20231;-79
2021/01/30 13:51:02;;;;;;;0.30;0.30;;;;;;;9.30;60.85;97617.81;5127718;23;20238;-83
2021/01/30 13:53:41;;;;;;;0.30;0.30;;;;;;;9.14;61.23;97635.66;4998766;23;20297;-82
2021/01/30 13:56:26;;;;;;;0.30;0.30;;;;;;;8.94;61.73;97632.84;4899956;23;20585;-83
2021/01/30 13:59:03;;;;;;;0.30;0.30;;;;;;;9.01;62.81;97664.66;4940661;23;20236;-83
2021/01/30 14:01:30;;;;;;;0.30;0.30;;;;;;;8.53;61.73;97677.13;4950716;23;20283;-82
2021/01/30 14:04:00;;;;;;;0.30;0.30;;;;;;;7.75;64.29;97674.91;4951696;23;20326;-83
2021/01/30 14:06:46;;;;;;;0.37;0.37;;;;;;;7.55;66.83;97704.00;5030232;23;20171;-82
2021/01/30 14:09:44;;;;;;;0.30;0.30;;;;;;;7.11;70.08;97713.75;4893061;29;20219;-82
2021/01/30 14:19:31;;;;;;;0.33;0.33;;;;;;;5.59;76.87;97700.34;5617830;23;20243;-84